Historyczne dane pomiarowe

Dodano dane terminowe – wersja testowa.

Dane z okresu 1951-2019

Wersja bazy: 1.32 [2019-02-07, lista zmian], aktualizacja planowana na 2019-03-07

Dane meteo z obszaru Polski uzyskane na podstawie danych udostępnionych przez Instytut Meteorologii i Gospodarki Wodnej – Państwowy Instytut Badawczy.

 

Wybierz Datę:    

       

TemperaturaWilgotnośćWiatrCiśnienieOpadyŚniegCzas trwania zjawisk
 Stacja t tx tn tng RH VA  wxwx mslp ppp RRR   cm mm wxwxwxwxwxwxwx
2002-01-14 -2.1 -1.2 -2.7 -4.8 94.3- 8.0 0.3---- 0.0-- 9---------
2002-01-15 -4.6 -0.4 -6.6-11.1 85.3- 0.7 0.3---- 0.0-- 8---------
2002-01-16 -8.1 -2.8-11.6-15.0 83.5- 0.7 0.3---- 0.0-- 8---------
2002-01-17 -6.9 -2.2-11.4-12.6 88.8- 5.3 1.0---- 0.0-- 8---------
2002-01-18 -4.2 0.8 -8.2-10.1 87.0- 0.3 1.3---- 0.0-- 8---------
2002-01-19 0.6 3.1 -2.5 -5.4 85.8- 7.7 1.0---- 0.0-- 7---------
2002-01-20 3.4 5.2 2.5 0.3 85.8- 8.0 2.0---- 3.4-- 7---------
2002-01-21 4.9 8.1 2.8 1.3 88.5- 8.0 2.0---- 6.3------------
2002-01-22 7.2 12.0 3.9 2.8 78.0- 4.3 4.3---- 0.0------------
2002-01-23 4.8 9.3 2.3 0.2 72.5- 1.3 3.7---- 0.0------------
2002-01-24 4.5 8.0 -0.2 -3.6 81.5- 8.0 2.0---- 1.4------------
2002-01-25 3.8 6.1 2.1 -0.4 69.8- 5.7 10.3---- 0.0------------
2002-01-26 4.1 10.0 -0.7 -4.0 79.8- 6.0 5.0---- 1.6------------
2002-01-27 8.2 11.1 4.2 1.1 68.0- 7.3 9.3---- 1.5------------
2002-01-28 9.2 13.4 5.1 2.8 79.3- 8.0 10.0---- 5.9------------
2002-01-29 9.7 12.4 8.1 4.6 60.8- 3.7 7.7---- 0.0------------
2002-01-30 7.3 13.0 2.1 -2.5 70.8- 4.3 2.7---- 0.0------------
2002-01-31 7.6 13.5 1.2 -2.1 53.8- 6.0 3.0---- 0.0------------
2002-02-01 4.8 11.0 -0.7 -4.3 78.3- 0.0 2.0---- 0.0------------
2002-02-02 6.1 14.8 1.6 -1.7 85.8- 1.3 0.7---- 0.0------------
2002-02-03 7.6 15.4 1.7 -2.9 72.3- 1.3 1.7---- 0.0------------
2002-02-04 6.4 11.6 2.8 -0.8 65.8- 1.3 3.7---- 0.0------------
2002-02-05 5.1 14.3 -1.4 -4.4 73.8- 5.0 1.7---- 1.0------------
2002-02-06 6.8 10.3 4.2 1.6 69.3- 7.7 1.3---- 1.7------------
2002-02-07 4.2 7.6 1.7 -1.3 89.0- 7.3 1.3---- 0.0------------
2002-02-08 5.4 8.0 2.2 -0.3 73.0- 6.7 6.7---- 3.0------------
2002-02-09 8.1 11.1 4.3 2.1 80.3- 8.0 4.3---- 0.8------------
2002-02-10 7.1 10.5 5.3 2.6 84.0- 7.3 2.7---- 3.5------------
2002-02-11 7.3 9.2 5.1 2.8 81.3- 8.0 4.3---- 4.0------------
2002-02-12 10.7 12.8 9.2 6.4 76.0- 8.0 6.0---- 5.4------------
178.3 ms

 

Źródłem pochodzenia danych jest Instytut Meteorologii i Gospodarki Wodnej – Państwowy Instytut Badawczy. Dane Instytutu Meteorologii i Gospodarki Wodnej – Państwowego Instytutu Badawczego zostały przetworzone.

Dane źródłowe można odnaleźć na stronie https://dane.imgw.pl